sensor_id;sensor_type;location;lat;lon;timestamp;temperature;humidity
20512;DHT22;10414;52.074;5.126;2024-02-21T00:00:54;10.30;99.90
20512;DHT22;10414;52.074;5.126;2024-02-21T00:03:20;10.20;99.90
20512;DHT22;10414;52.074;5.126;2024-02-21T00:05:48;10.20;99.90
20512;DHT22;10414;52.074;5.126;2024-02-21T00:08:14;10.20;99.90
20512;DHT22;10414;52.074;5.126;2024-02-21T00:10:41;10.20;99.90
20512;DHT22;10414;52.074;5.126;2024-02-21T00:13:09;10.20;99.90
20512;DHT22;10414;52.074;5.126;2024-02-21T00:15:37;10.20;99.90
20512;DHT22;10414;52.074;5.126;2024-02-21T00:18:04;10.20;99.90
20512;DHT22;10414;52.074;5.126;2024-02-21T00:20:31;10.30;99.90
20512;DHT22;10414;52.074;5.126;2024-02-21T00:22:58;10.40;99.90
20512;DHT22;10414;52.074;5.126;2024-02-21T00:25:24;10.40;99.90
20512;DHT22;10414;52.074;5.126;2024-02-21T00:27:51;10.40;99.90
20512;DHT22;10414;52.074;5.126;2024-02-21T00:30:20;10.40;99.90
20512;DHT22;10414;52.074;5.126;2024-02-21T00:32:47;10.40;99.90
20512;DHT22;10414;52.074;5.126;2024-02-21T00:35:14;10.40;99.90
20512;DHT22;10414;52.074;5.126;2024-02-21T00:37:41;10.40;99.90
20512;DHT22;10414;52.074;5.126;2024-02-21T00:40:08;10.40;99.90
20512;DHT22;10414;52.074;5.126;2024-02-21T00:42:36;10.40;99.90
20512;DHT22;10414;52.074;5.126;2024-02-21T00:45:03;10.40;99.90
20512;DHT22;10414;52.074;5.126;2024-02-21T00:47:31;10.30;99.90
20512;DHT22;10414;52.074;5.126;2024-02-21T00:49:59;10.30;99.90
20512;DHT22;10414;52.074;5.126;2024-02-21T00:52:25;10.30;99.90
20512;DHT22;10414;52.074;5.126;2024-02-21T00:54:52;10.40;99.90
20512;DHT22;10414;52.074;5.126;2024-02-21T00:57:19;10.40;99.90
20512;DHT22;10414;52.074;5.126;2024-02-21T00:59:46;10.50;99.90
20512;DHT22;10414;52.074;5.126;2024-02-21T01:02:13;10.50;99.90
20512;DHT22;10414;52.074;5.126;2024-02-21T01:04:41;10.50;99.90
20512;DHT22;10414;52.074;5.126;2024-02-21T01:07:08;10.50;99.90
20512;DHT22;10414;52.074;5.126;2024-02-21T01:09:34;10.50;99.90
20512;DHT22;10414;52.074;5.126;2024-02-21T01:12:01;10.60;99.90
20512;DHT22;10414;52.074;5.126;2024-02-21T01:14:28;10.70;99.90
20512;DHT22;10414;52.074;5.126;2024-02-21T01:16:55;10.60;99.90
20512;DHT22;10414;52.074;5.126;2024-02-21T01:19:22;10.60;99.90
20512;DHT22;10414;52.074;5.126;2024-02-21T01:21:50;10.60;99.90
20512;DHT22;10414;52.074;5.126;2024-02-21T01:24:17;10.60;99.90
20512;DHT22;10414;52.074;5.126;2024-02-21T01:26:44;10.60;99.90
20512;DHT22;10414;52.074;5.126;2024-02-21T01:29:12;10.60;99.90
20512;DHT22;10414;52.074;5.126;2024-02-21T01:31:38;10.70;99.90
20512;DHT22;10414;52.074;5.126;2024-02-21T01:34:05;10.70;99.90
20512;DHT22;10414;52.074;5.126;2024-02-21T01:36:32;10.70;99.90
20512;DHT22;10414;52.074;5.126;2024-02-21T01:39:00;10.70;99.90
20512;DHT22;10414;52.074;5.126;2024-02-21T01:41:29;10.60;99.90
20512;DHT22;10414;52.074;5.126;2024-02-21T01:43:56;10.70;99.90
20512;DHT22;10414;52.074;5.126;2024-02-21T01:46:23;10.70;99.90
20512;DHT22;10414;52.074;5.126;2024-02-21T01:48:53;10.60;99.90
20512;DHT22;10414;52.074;5.126;2024-02-21T01:51:20;10.50;99.90
20512;DHT22;10414;52.074;5.126;2024-02-21T01:53:48;10.50;99.90
20512;DHT22;10414;52.074;5.126;2024-02-21T01:56:17;10.70;99.90
20512;DHT22;10414;52.074;5.126;2024-02-21T01:58:45;10.80;99.90
20512;DHT22;10414;52.074;5.126;2024-02-21T02:01:12;10.80;99.90
20512;DHT22;10414;52.074;5.126;2024-02-21T02:03:39;10.90;99.90
20512;DHT22;10414;52.074;5.126;2024-02-21T02:06:07;10.80;99.90
20512;DHT22;10414;52.074;5.126;2024-02-21T02:08:34;10.70;99.90
20512;DHT22;10414;52.074;5.126;2024-02-21T02:11:00;10.90;99.90
20512;DHT22;10414;52.074;5.126;2024-02-21T02:13:29;10.90;99.90
20512;DHT22;10414;52.074;5.126;2024-02-21T02:15:56;10.80;99.90
20512;DHT22;10414;52.074;5.126;2024-02-21T02:18:23;10.70;99.90
20512;DHT22;10414;52.074;5.126;2024-02-21T02:20:50;10.60;99.90
20512;DHT22;10414;52.074;5.126;2024-02-21T02:23:22;10.60;99.90
20512;DHT22;10414;52.074;5.126;2024-02-21T02:25:49;10.50;99.90
20512;DHT22;10414;52.074;5.126;2024-02-21T02:28:18;10.60;99.90
20512;DHT22;10414;52.074;5.126;2024-02-21T02:30:45;10.50;99.90
20512;DHT22;10414;52.074;5.126;2024-02-21T02:33:12;10.50;99.90
20512;DHT22;10414;52.074;5.126;2024-02-21T02:35:39;10.70;99.90
20512;DHT22;10414;52.074;5.126;2024-02-21T02:38:06;10.70;99.90
20512;DHT22;10414;52.074;5.126;2024-02-21T02:40:35;10.70;99.90
20512;DHT22;10414;52.074;5.126;2024-02-21T02:43:02;10.60;99.90
20512;DHT22;10414;52.074;5.126;2024-02-21T02:45:29;10.70;99.90
20512;DHT22;10414;52.074;5.126;2024-02-21T02:47:57;10.70;99.90
20512;DHT22;10414;52.074;5.126;2024-02-21T02:50:24;10.80;99.90
20512;DHT22;10414;52.074;5.126;2024-02-21T02:52:52;10.90;99.90
20512;DHT22;10414;52.074;5.126;2024-02-21T02:55:19;10.80;99.90
20512;DHT22;10414;52.074;5.126;2024-02-21T02:57:48;10.60;99.90
20512;DHT22;10414;52.074;5.126;2024-02-21T03:00:15;10.50;99.90
20512;DHT22;10414;52.074;5.126;2024-02-21T03:02:45;10.40;99.90
20512;DHT22;10414;52.074;5.126;2024-02-21T03:05:14;10.60;99.90
20512;DHT22;10414;52.074;5.126;2024-02-21T03:07:41;10.50;99.90
20512;DHT22;10414;52.074;5.126;2024-02-21T03:10:09;10.40;99.90
20512;DHT22;10414;52.074;5.126;2024-02-21T03:12:36;10.40;99.90
20512;DHT22;10414;52.074;5.126;2024-02-21T03:15:06;10.40;99.90
20512;DHT22;10414;52.074;5.126;2024-02-21T03:17:33;10.40;99.90
20512;DHT22;10414;52.074;5.126;2024-02-21T03:20:01;10.40;99.90
20512;DHT22;10414;52.074;5.126;2024-02-21T03:22:30;10.50;99.90
20512;DHT22;10414;52.074;5.126;2024-02-21T03:24:57;10.60;99.90
20512;DHT22;10414;52.074;5.126;2024-02-21T03:27:24;10.60;99.90
20512;DHT22;10414;52.074;5.126;2024-02-21T03:29:51;10.70;99.90
20512;DHT22;10414;52.074;5.126;2024-02-21T03:32:19;10.60;99.90
20512;DHT22;10414;52.074;5.126;2024-02-21T03:34:46;10.50;99.90
20512;DHT22;10414;52.074;5.126;2024-02-21T03:37:13;10.40;99.90
20512;DHT22;10414;52.074;5.126;2024-02-21T03:39:39;10.40;99.90
20512;DHT22;10414;52.074;5.126;2024-02-21T03:42:07;10.50;99.90
20512;DHT22;10414;52.074;5.126;2024-02-21T03:44:34;10.50;99.90
20512;DHT22;10414;52.074;5.126;2024-02-21T03:47:00;10.60;99.90
20512;DHT22;10414;52.074;5.126;2024-02-21T03:49:29;10.60;99.90
20512;DHT22;10414;52.074;5.126;2024-02-21T03:51:56;10.50;99.90
20512;DHT22;10414;52.074;5.126;2024-02-21T03:54:22;10.60;99.90
20512;DHT22;10414;52.074;5.126;2024-02-21T03:56:50;10.50;99.90
20512;DHT22;10414;52.074;5.126;2024-02-21T03:59:16;10.50;99.90
20512;DHT22;10414;52.074;5.126;2024-02-21T04:01:43;10.30;99.90
20512;DHT22;10414;52.074;5.126;2024-02-21T04:04:10;10.10;99.90
20512;DHT22;10414;52.074;5.126;2024-02-21T04:06:46;10.20;99.90
20512;DHT22;10414;52.074;5.126;2024-02-21T04:09:13;10.20;99.90
20512;DHT22;10414;52.074;5.126;2024-02-21T04:11:40;10.20;99.90
20512;DHT22;10414;52.074;5.126;2024-02-21T04:14:07;10.10;99.90
20512;DHT22;10414;52.074;5.126;2024-02-21T04:16:34;10.10;99.90
20512;DHT22;10414;52.074;5.126;2024-02-21T04:19:01;10.20;99.90
20512;DHT22;10414;52.074;5.126;2024-02-21T04:21:28;10.20;99.90
20512;DHT22;10414;52.074;5.126;2024-02-21T04:23:56;10.30;99.90
20512;DHT22;10414;52.074;5.126;2024-02-21T04:26:24;10.30;99.90
20512;DHT22;10414;52.074;5.126;2024-02-21T04:28:51;10.20;99.90
20512;DHT22;10414;52.074;5.126;2024-02-21T04:31:17;10.20;99.90
20512;DHT22;10414;52.074;5.126;2024-02-21T04:33:44;10.20;99.90
20512;DHT22;10414;52.074;5.126;2024-02-21T04:36:11;10.20;99.90
20512;DHT22;10414;52.074;5.126;2024-02-21T04:38:38;10.10;99.90
20512;DHT22;10414;52.074;5.126;2024-02-21T04:41:07;10.20;99.90
20512;DHT22;10414;52.074;5.126;2024-02-21T04:43:34;10.20;99.90
20512;DHT22;10414;52.074;5.126;2024-02-21T04:46:01;10.20;99.90
20512;DHT22;10414;52.074;5.126;2024-02-21T04:48:28;10.20;99.90
20512;DHT22;10414;52.074;5.126;2024-02-21T04:50:55;10.20;99.90
20512;DHT22;10414;52.074;5.126;2024-02-21T04:53:22;10.10;99.90
20512;DHT22;10414;52.074;5.126;2024-02-21T04:55:49;10.30;99.90
20512;DHT22;10414;52.074;5.126;2024-02-21T04:58:17;10.20;99.90
20512;DHT22;10414;52.074;5.126;2024-02-21T05:00:44;10.20;99.90
20512;DHT22;10414;52.074;5.126;2024-02-21T05:03:11;10.20;99.90
20512;DHT22;10414;52.074;5.126;2024-02-21T05:05:37;10.20;99.90
20512;DHT22;10414;52.074;5.126;2024-02-21T05:08:04;10.20;99.90
20512;DHT22;10414;52.074;5.126;2024-02-21T05:10:31;10.20;99.90
20512;DHT22;10414;52.074;5.126;2024-02-21T05:12:58;10.10;99.90
20512;DHT22;10414;52.074;5.126;2024-02-21T05:15:26;10.10;99.90
20512;DHT22;10414;52.074;5.126;2024-02-21T05:17:54;10.10;99.90
20512;DHT22;10414;52.074;5.126;2024-02-21T05:20:20;10.10;99.90
20512;DHT22;10414;52.074;5.126;2024-02-21T05:22:47;10.30;99.90
20512;DHT22;10414;52.074;5.126;2024-02-21T05:25:14;10.40;99.90
20512;DHT22;10414;52.074;5.126;2024-02-21T05:27:41;10.40;99.90
20512;DHT22;10414;52.074;5.126;2024-02-21T05:30:08;10.20;99.90
20512;DHT22;10414;52.074;5.126;2024-02-21T05:32:37;10.30;99.90
20512;DHT22;10414;52.074;5.126;2024-02-21T05:35:04;10.30;99.90
20512;DHT22;10414;52.074;5.126;2024-02-21T05:37:31;10.40;99.90
20512;DHT22;10414;52.074;5.126;2024-02-21T05:39:57;10.40;99.90
20512;DHT22;10414;52.074;5.126;2024-02-21T05:42:24;10.40;99.90
20512;DHT22;10414;52.074;5.126;2024-02-21T05:44:51;10.30;99.90
20512;DHT22;10414;52.074;5.126;2024-02-21T05:47:18;10.30;99.90
20512;DHT22;10414;52.074;5.126;2024-02-21T05:49:47;10.30;99.90
20512;DHT22;10414;52.074;5.126;2024-02-21T05:52:14;10.30;99.90
20512;DHT22;10414;52.074;5.126;2024-02-21T05:54:41;10.30;99.90
20512;DHT22;10414;52.074;5.126;2024-02-21T05:57:08;10.40;99.90
20512;DHT22;10414;52.074;5.126;2024-02-21T05:59:37;10.30;99.90
20512;DHT22;10414;52.074;5.126;2024-02-21T06:02:05;10.30;99.90
20512;DHT22;10414;52.074;5.126;2024-02-21T06:04:32;10.40;99.90
20512;DHT22;10414;52.074;5.126;2024-02-21T06:07:00;10.20;99.90
20512;DHT22;10414;52.074;5.126;2024-02-21T06:09:27;10.20;99.90
20512;DHT22;10414;52.074;5.126;2024-02-21T06:11:54;10.10;99.90
20512;DHT22;10414;52.074;5.126;2024-02-21T06:14:21;10.20;99.90
20512;DHT22;10414;52.074;5.126;2024-02-21T06:16:48;10.20;99.90
20512;DHT22;10414;52.074;5.126;2024-02-21T06:19:15;10.10;99.90
20512;DHT22;10414;52.074;5.126;2024-02-21T06:21:41;10.00;99.90
20512;DHT22;10414;52.074;5.126;2024-02-21T06:24:10;10.00;99.90
20512;DHT22;10414;52.074;5.126;2024-02-21T06:26:38;10.00;99.90
20512;DHT22;10414;52.074;5.126;2024-02-21T06:29:05;10.00;99.90
20512;DHT22;10414;52.074;5.126;2024-02-21T06:31:33;10.20;99.90
20512;DHT22;10414;52.074;5.126;2024-02-21T06:34:00;10.20;99.90
20512;DHT22;10414;52.074;5.126;2024-02-21T06:36:26;10.00;99.90
20512;DHT22;10414;52.074;5.126;2024-02-21T06:38:53;10.10;99.90
20512;DHT22;10414;52.074;5.126;2024-02-21T06:41:22;10.10;99.90
20512;DHT22;10414;52.074;5.126;2024-02-21T06:43:48;10.10;99.90
20512;DHT22;10414;52.074;5.126;2024-02-21T06:46:23;10.00;99.90
20512;DHT22;10414;52.074;5.126;2024-02-21T06:48:50;10.10;99.90
20512;DHT22;10414;52.074;5.126;2024-02-21T06:51:17;10.00;99.90
20512;DHT22;10414;52.074;5.126;2024-02-21T06:53:44;9.90;99.90
20512;DHT22;10414;52.074;5.126;2024-02-21T06:56:11;10.00;99.90
20512;DHT22;10414;52.074;5.126;2024-02-21T06:58:39;9.90;99.90
20512;DHT22;10414;52.074;5.126;2024-02-21T07:01:06;9.90;99.90
20512;DHT22;10414;52.074;5.126;2024-02-21T07:03:33;9.80;99.90
20512;DHT22;10414;52.074;5.126;2024-02-21T07:06:00;9.80;99.90
20512;DHT22;10414;52.074;5.126;2024-02-21T07:08:27;9.70;99.90
20512;DHT22;10414;52.074;5.126;2024-02-21T07:10:54;9.80;99.90
20512;DHT22;10414;52.074;5.126;2024-02-21T07:13:21;9.90;99.90
20512;DHT22;10414;52.074;5.126;2024-02-21T07:15:49;9.80;99.90
20512;DHT22;10414;52.074;5.126;2024-02-21T07:18:16;9.90;99.90
20512;DHT22;10414;52.074;5.126;2024-02-21T07:20:43;9.90;99.90
20512;DHT22;10414;52.074;5.126;2024-02-21T07:23:10;9.90;99.90
20512;DHT22;10414;52.074;5.126;2024-02-21T07:25:37;9.90;99.90
20512;DHT22;10414;52.074;5.126;2024-02-21T07:28:05;9.90;99.90
20512;DHT22;10414;52.074;5.126;2024-02-21T07:30:32;9.80;99.90
20512;DHT22;10414;52.074;5.126;2024-02-21T07:33:00;9.80;99.90
20512;DHT22;10414;52.074;5.126;2024-02-21T07:35:27;9.90;99.90
20512;DHT22;10414;52.074;5.126;2024-02-21T07:37:54;10.00;99.90
20512;DHT22;10414;52.074;5.126;2024-02-21T07:40:20;10.00;99.90
20512;DHT22;10414;52.074;5.126;2024-02-21T07:42:47;10.00;99.90
20512;DHT22;10414;52.074;5.126;2024-02-21T07:45:14;10.10;99.90
20512;DHT22;10414;52.074;5.126;2024-02-21T07:47:41;10.10;99.90
20512;DHT22;10414;52.074;5.126;2024-02-21T07:50:10;10.00;99.90
20512;DHT22;10414;52.074;5.126;2024-02-21T07:52:36;10.10;99.90
20512;DHT22;10414;52.074;5.126;2024-02-21T07:55:04;10.10;99.90
20512;DHT22;10414;52.074;5.126;2024-02-21T07:57:31;10.20;99.90
20512;DHT22;10414;52.074;5.126;2024-02-21T07:59:58;10.10;99.90
20512;DHT22;10414;52.074;5.126;2024-02-21T08:02:24;10.10;99.90
20512;DHT22;10414;52.074;5.126;2024-02-21T08:04:51;10.10;99.90
20512;DHT22;10414;52.074;5.126;2024-02-21T08:07:19;10.20;99.90
20512;DHT22;10414;52.074;5.126;2024-02-21T08:09:46;10.30;99.90
20512;DHT22;10414;52.074;5.126;2024-02-21T08:12:13;10.50;99.90
20512;DHT22;10414;52.074;5.126;2024-02-21T08:14:40;10.50;99.90
20512;DHT22;10414;52.074;5.126;2024-02-21T08:17:07;10.40;99.90
20512;DHT22;10414;52.074;5.126;2024-02-21T08:19:34;10.40;99.90
20512;DHT22;10414;52.074;5.126;2024-02-21T08:22:00;10.50;99.90
20512;DHT22;10414;52.074;5.126;2024-02-21T08:24:30;10.40;99.90
20512;DHT22;10414;52.074;5.126;2024-02-21T08:26:57;10.40;99.90
20512;DHT22;10414;52.074;5.126;2024-02-21T08:29:23;10.40;99.90
20512;DHT22;10414;52.074;5.126;2024-02-21T08:31:50;10.50;99.90
20512;DHT22;10414;52.074;5.126;2024-02-21T08:34:18;10.50;99.90
20512;DHT22;10414;52.074;5.126;2024-02-21T08:36:44;10.40;99.90
20512;DHT22;10414;52.074;5.126;2024-02-21T08:39:11;10.40;99.90
20512;DHT22;10414;52.074;5.126;2024-02-21T08:41:43;10.50;99.90
20512;DHT22;10414;52.074;5.126;2024-02-21T08:44:10;10.60;99.90
20512;DHT22;10414;52.074;5.126;2024-02-21T08:46:37;10.70;99.90
20512;DHT22;10414;52.074;5.126;2024-02-21T08:49:05;10.70;99.90
20512;DHT22;10414;52.074;5.126;2024-02-21T08:51:32;10.70;99.90
20512;DHT22;10414;52.074;5.126;2024-02-21T08:54:00;10.70;99.90
20512;DHT22;10414;52.074;5.126;2024-02-21T08:56:29;10.60;99.90
20512;DHT22;10414;52.074;5.126;2024-02-21T08:58:58;10.50;99.90
20512;DHT22;10414;52.074;5.126;2024-02-21T09:01:25;10.50;99.90
20512;DHT22;10414;52.074;5.126;2024-02-21T09:03:52;10.50;99.90
20512;DHT22;10414;52.074;5.126;2024-02-21T09:06:19;10.60;99.90
20512;DHT22;10414;52.074;5.126;2024-02-21T09:08:46;10.60;99.90
20512;DHT22;10414;52.074;5.126;2024-02-21T09:11:13;10.50;99.90
20512;DHT22;10414;52.074;5.126;2024-02-21T09:13:40;10.70;99.90
20512;DHT22;10414;52.074;5.126;2024-02-21T09:16:08;10.70;99.90
20512;DHT22;10414;52.074;5.126;2024-02-21T09:18:35;10.70;99.90
20512;DHT22;10414;52.074;5.126;2024-02-21T09:21:02;10.70;99.90
20512;DHT22;10414;52.074;5.126;2024-02-21T09:23:29;10.80;99.90
20512;DHT22;10414;52.074;5.126;2024-02-21T09:25:57;10.70;99.90
20512;DHT22;10414;52.074;5.126;2024-02-21T09:28:26;10.70;99.90
20512;DHT22;10414;52.074;5.126;2024-02-21T09:30:52;10.70;99.90
20512;DHT22;10414;52.074;5.126;2024-02-21T09:33:21;10.60;99.90
20512;DHT22;10414;52.074;5.126;2024-02-21T09:35:48;10.60;99.90
20512;DHT22;10414;52.074;5.126;2024-02-21T09:38:15;10.60;99.90
20512;DHT22;10414;52.074;5.126;2024-02-21T09:40:42;10.70;99.90
20512;DHT22;10414;52.074;5.126;2024-02-21T09:43:09;10.70;99.90
20512;DHT22;10414;52.074;5.126;2024-02-21T09:45:34;10.80;99.90
20512;DHT22;10414;52.074;5.126;2024-02-21T09:48:27;10.80;99.90
20512;DHT22;10414;52.074;5.126;2024-02-21T09:50:57;11.00;99.90
20512;DHT22;10414;52.074;5.126;2024-02-21T09:53:26;11.00;99.90
20512;DHT22;10414;52.074;5.126;2024-02-21T09:55:54;11.00;99.90
20512;DHT22;10414;52.074;5.126;2024-02-21T09:58:22;10.90;99.90
20512;DHT22;10414;52.074;5.126;2024-02-21T10:00:51;10.90;99.90
20512;DHT22;10414;52.074;5.126;2024-02-21T10:03:18;10.90;99.90
20512;DHT22;10414;52.074;5.126;2024-02-21T10:05:49;11.00;99.90
20512;DHT22;10414;52.074;5.126;2024-02-21T10:08:16;11.10;99.90
20512;DHT22;10414;52.074;5.126;2024-02-21T10:10:44;11.10;99.90
20512;DHT22;10414;52.074;5.126;2024-02-21T10:13:10;11.10;99.90
20512;DHT22;10414;52.074;5.126;2024-02-21T10:15:38;11.00;99.90
20512;DHT22;10414;52.074;5.126;2024-02-21T10:18:05;11.00;99.90
20512;DHT22;10414;52.074;5.126;2024-02-21T10:20:32;11.30;99.90
20512;DHT22;10414;52.074;5.126;2024-02-21T10:23:05;11.40;99.90
20512;DHT22;10414;52.074;5.126;2024-02-21T10:25:35;11.50;99.90
20512;DHT22;10414;52.074;5.126;2024-02-21T10:28:04;11.20;99.90
20512;DHT22;10414;52.074;5.126;2024-02-21T10:30:31;11.40;99.90
20512;DHT22;10414;52.074;5.126;2024-02-21T10:32:57;11.40;99.90
20512;DHT22;10414;52.074;5.126;2024-02-21T10:35:28;11.60;99.90
20512;DHT22;10414;52.074;5.126;2024-02-21T10:37:55;11.60;99.90
20512;DHT22;10414;52.074;5.126;2024-02-21T10:40:25;11.60;99.90
20512;DHT22;10414;52.074;5.126;2024-02-21T10:42:56;11.50;99.90
20512;DHT22;10414;52.074;5.126;2024-02-21T10:45:29;11.40;99.90
20512;DHT22;10414;52.074;5.126;2024-02-21T10:48:03;11.50;99.90
20512;DHT22;10414;52.074;5.126;2024-02-21T10:50:37;11.70;99.90
20512;DHT22;10414;52.074;5.126;2024-02-21T10:53:14;11.90;99.90
20512;DHT22;10414;52.074;5.126;2024-02-21T10:55:54;11.90;99.90
20512;DHT22;10414;52.074;5.126;2024-02-21T10:58:23;11.90;99.90
20512;DHT22;10414;52.074;5.126;2024-02-21T11:00:51;11.80;99.90
20512;DHT22;10414;52.074;5.126;2024-02-21T11:03:19;11.70;99.90
20512;DHT22;10414;52.074;5.126;2024-02-21T11:05:46;11.50;99.90
20512;DHT22;10414;52.074;5.126;2024-02-21T11:08:14;11.30;99.90
20512;DHT22;10414;52.074;5.126;2024-02-21T11:10:47;11.20;99.90
20512;DHT22;10414;52.074;5.126;2024-02-21T11:13:14;11.20;99.90
20512;DHT22;10414;52.074;5.126;2024-02-21T11:15:41;11.10;99.90
20512;DHT22;10414;52.074;5.126;2024-02-21T11:18:08;11.00;99.90
20512;DHT22;10414;52.074;5.126;2024-02-21T11:20:36;10.90;99.90
20512;DHT22;10414;52.074;5.126;2024-02-21T11:23:04;11.10;99.90
20512;DHT22;10414;52.074;5.126;2024-02-21T11:25:31;11.10;99.90
20512;DHT22;10414;52.074;5.126;2024-02-21T11:28:01;11.20;99.90
20512;DHT22;10414;52.074;5.126;2024-02-21T11:30:30;11.10;99.90
20512;DHT22;10414;52.074;5.126;2024-02-21T11:33:01;11.10;99.90
20512;DHT22;10414;52.074;5.126;2024-02-21T11:35:31;11.10;99.90
20512;DHT22;10414;52.074;5.126;2024-02-21T11:38:08;11.00;99.90
20512;DHT22;10414;52.074;5.126;2024-02-21T11:40:38;11.00;99.90
20512;DHT22;10414;52.074;5.126;2024-02-21T11:43:06;10.90;99.90
20512;DHT22;10414;52.074;5.126;2024-02-21T11:45:33;11.00;99.90
20512;DHT22;10414;52.074;5.126;2024-02-21T11:48:00;11.30;99.90
20512;DHT22;10414;52.074;5.126;2024-02-21T11:50:29;11.50;99.90
20512;DHT22;10414;52.074;5.126;2024-02-21T11:52:56;11.70;99.90
20512;DHT22;10414;52.074;5.126;2024-02-21T11:55:23;11.70;99.90
20512;DHT22;10414;52.074;5.126;2024-02-21T11:57:50;11.90;99.90
20512;DHT22;10414;52.074;5.126;2024-02-21T12:00:19;11.80;99.90
20512;DHT22;10414;52.074;5.126;2024-02-21T12:02:47;11.80;99.90
20512;DHT22;10414;52.074;5.126;2024-02-21T12:05:16;11.90;99.90
20512;DHT22;10414;52.074;5.126;2024-02-21T12:07:43;11.80;99.90
20512;DHT22;10414;52.074;5.126;2024-02-21T12:10:10;11.90;99.90
20512;DHT22;10414;52.074;5.126;2024-02-21T12:12:37;12.00;99.90
20512;DHT22;10414;52.074;5.126;2024-02-21T12:15:05;11.90;99.90
20512;DHT22;10414;52.074;5.126;2024-02-21T12:17:34;11.80;99.90
20512;DHT22;10414;52.074;5.126;2024-02-21T12:20:01;11.70;99.90
20512;DHT22;10414;52.074;5.126;2024-02-21T12:22:31;11.70;99.90
20512;DHT22;10414;52.074;5.126;2024-02-21T12:24:58;11.80;99.90
20512;DHT22;10414;52.074;5.126;2024-02-21T12:27:25;12.00;99.90
20512;DHT22;10414;52.074;5.126;2024-02-21T12:29:52;12.00;99.90
20512;DHT22;10414;52.074;5.126;2024-02-21T12:32:19;12.10;99.90
20512;DHT22;10414;52.074;5.126;2024-02-21T12:34:47;12.00;99.90
20512;DHT22;10414;52.074;5.126;2024-02-21T12:37:15;11.90;99.90
20512;DHT22;10414;52.074;5.126;2024-02-21T12:39:42;12.00;99.90
20512;DHT22;10414;52.074;5.126;2024-02-21T12:42:09;12.00;99.90
20512;DHT22;10414;52.074;5.126;2024-02-21T12:44:37;12.00;99.90
20512;DHT22;10414;52.074;5.126;2024-02-21T12:47:04;12.30;99.90
20512;DHT22;10414;52.074;5.126;2024-02-21T12:49:31;12.20;99.90
20512;DHT22;10414;52.074;5.126;2024-02-21T12:51:59;12.20;99.90
20512;DHT22;10414;52.074;5.126;2024-02-21T12:54:26;12.00;99.90
20512;DHT22;10414;52.074;5.126;2024-02-21T12:56:53;11.90;99.90
20512;DHT22;10414;52.074;5.126;2024-02-21T12:59:20;12.00;99.90
20512;DHT22;10414;52.074;5.126;2024-02-21T13:01:47;12.00;99.90
20512;DHT22;10414;52.074;5.126;2024-02-21T13:04:14;12.20;99.90
20512;DHT22;10414;52.074;5.126;2024-02-21T13:06:41;12.40;99.90
20512;DHT22;10414;52.074;5.126;2024-02-21T13:09:09;12.40;99.90
20512;DHT22;10414;52.074;5.126;2024-02-21T13:11:37;12.40;99.90
20512;DHT22;10414;52.074;5.126;2024-02-21T13:14:04;12.40;99.90
20512;DHT22;10414;52.074;5.126;2024-02-21T13:16:31;12.10;99.90
20512;DHT22;10414;52.074;5.126;2024-02-21T13:18:59;12.00;99.90
20512;DHT22;10414;52.074;5.126;2024-02-21T13:21:26;12.00;99.90
20512;DHT22;10414;52.074;5.126;2024-02-21T13:23:53;11.90;99.90
20512;DHT22;10414;52.074;5.126;2024-02-21T13:26:21;11.90;99.90
20512;DHT22;10414;52.074;5.126;2024-02-21T13:28:48;11.80;99.90
20512;DHT22;10414;52.074;5.126;2024-02-21T13:31:15;11.70;99.90
20512;DHT22;10414;52.074;5.126;2024-02-21T13:33:42;11.80;99.90
20512;DHT22;10414;52.074;5.126;2024-02-21T13:36:10;11.80;99.90
20512;DHT22;10414;52.074;5.126;2024-02-21T13:38:37;11.70;99.90
20512;DHT22;10414;52.074;5.126;2024-02-21T13:41:05;11.70;99.90
20512;DHT22;10414;52.074;5.126;2024-02-21T13:43:33;11.80;99.90
20512;DHT22;10414;52.074;5.126;2024-02-21T13:46:01;11.70;99.90
20512;DHT22;10414;52.074;5.126;2024-02-21T13:48:30;11.70;99.90
20512;DHT22;10414;52.074;5.126;2024-02-21T13:50:58;11.50;99.90
20512;DHT22;10414;52.074;5.126;2024-02-21T13:53:27;11.50;99.90
20512;DHT22;10414;52.074;5.126;2024-02-21T13:55:54;11.40;99.90
20512;DHT22;10414;52.074;5.126;2024-02-21T13:58:21;11.40;99.90
20512;DHT22;10414;52.074;5.126;2024-02-21T14:00:49;11.40;99.90
20512;DHT22;10414;52.074;5.126;2024-02-21T14:03:17;11.50;99.90
20512;DHT22;10414;52.074;5.126;2024-02-21T14:05:44;11.50;99.90
20512;DHT22;10414;52.074;5.126;2024-02-21T14:08:13;11.50;99.90
20512;DHT22;10414;52.074;5.126;2024-02-21T14:10:41;11.40;99.90
20512;DHT22;10414;52.074;5.126;2024-02-21T14:13:08;11.40;99.90
20512;DHT22;10414;52.074;5.126;2024-02-21T14:15:35;11.40;99.90
20512;DHT22;10414;52.074;5.126;2024-02-21T14:18:04;11.50;99.90
20512;DHT22;10414;52.074;5.126;2024-02-21T14:20:35;11.60;99.90
20512;DHT22;10414;52.074;5.126;2024-02-21T14:23:01;11.60;99.90
20512;DHT22;10414;52.074;5.126;2024-02-21T14:25:30;11.60;99.90
20512;DHT22;10414;52.074;5.126;2024-02-21T14:27:57;11.50;99.90
20512;DHT22;10414;52.074;5.126;2024-02-21T14:30:26;11.50;99.90
20512;DHT22;10414;52.074;5.126;2024-02-21T14:32:53;11.30;99.90
20512;DHT22;10414;52.074;5.126;2024-02-21T14:35:21;11.30;99.90
20512;DHT22;10414;52.074;5.126;2024-02-21T14:37:48;11.10;99.90
20512;DHT22;10414;52.074;5.126;2024-02-21T14:40:15;11.10;99.90
20512;DHT22;10414;52.074;5.126;2024-02-21T14:42:42;11.10;99.90
20512;DHT22;10414;52.074;5.126;2024-02-21T14:45:09;11.00;99.90
20512;DHT22;10414;52.074;5.126;2024-02-21T14:47:36;10.90;99.90
20512;DHT22;10414;52.074;5.126;2024-02-21T14:50:03;10.80;99.90
20512;DHT22;10414;52.074;5.126;2024-02-21T14:52:32;10.80;99.90
20512;DHT22;10414;52.074;5.126;2024-02-21T14:55:00;10.60;99.90
20512;DHT22;10414;52.074;5.126;2024-02-21T14:57:28;10.50;99.90
20512;DHT22;10414;52.074;5.126;2024-02-21T14:59:55;10.40;99.90
20512;DHT22;10414;52.074;5.126;2024-02-21T15:02:24;10.20;99.90
20512;DHT22;10414;52.074;5.126;2024-02-21T15:04:53;10.20;99.90
20512;DHT22;10414;52.074;5.126;2024-02-21T15:07:20;10.10;99.90
20512;DHT22;10414;52.074;5.126;2024-02-21T15:09:50;10.20;99.90
20512;DHT22;10414;52.074;5.126;2024-02-21T15:12:17;10.20;99.90
20512;DHT22;10414;52.074;5.126;2024-02-21T15:14:44;10.20;99.90
20512;DHT22;10414;52.074;5.126;2024-02-21T15:17:11;10.10;99.90
20512;DHT22;10414;52.074;5.126;2024-02-21T15:19:39;10.00;99.90
20512;DHT22;10414;52.074;5.126;2024-02-21T15:22:09;10.00;99.90
20512;DHT22;10414;52.074;5.126;2024-02-21T15:24:38;10.00;99.90
20512;DHT22;10414;52.074;5.126;2024-02-21T15:27:06;10.00;99.90
20512;DHT22;10414;52.074;5.126;2024-02-21T15:29:34;10.10;99.90
20512;DHT22;10414;52.074;5.126;2024-02-21T15:32:01;10.00;99.90
20512;DHT22;10414;52.074;5.126;2024-02-21T15:34:28;10.00;99.90